sensor_id;sensor_type;location;lat;lon;timestamp;temperature;humidity
5128;DHT22;2582;48.770;9.190;2023-02-15T00:01:11;3.20;99.90
5128;DHT22;2582;48.770;9.190;2023-02-15T00:03:37;3.10;99.90
5128;DHT22;2582;48.770;9.190;2023-02-15T00:06:04;3.20;99.90
5128;DHT22;2582;48.770;9.190;2023-02-15T00:08:30;3.10;99.90
5128;DHT22;2582;48.770;9.190;2023-02-15T00:11:05;3.10;99.90
5128;DHT22;2582;48.770;9.190;2023-02-15T00:13:31;3.10;99.90
5128;DHT22;2582;48.770;9.190;2023-02-15T00:16:05;3.00;99.90
5128;DHT22;2582;48.770;9.190;2023-02-15T00:18:31;3.00;99.90
5128;DHT22;2582;48.770;9.190;2023-02-15T00:20:57;3.00;99.90
5128;DHT22;2582;48.770;9.190;2023-02-15T00:23:24;3.00;99.90
5128;DHT22;2582;48.770;9.190;2023-02-15T00:25:51;2.90;99.90
5128;DHT22;2582;48.770;9.190;2023-02-15T00:28:16;2.90;99.90
5128;DHT22;2582;48.770;9.190;2023-02-15T00:30:42;2.80;99.90
5128;DHT22;2582;48.770;9.190;2023-02-15T00:33:07;2.70;99.90
5128;DHT22;2582;48.770;9.190;2023-02-15T00:35:33;2.70;99.90
5128;DHT22;2582;48.770;9.190;2023-02-15T00:40:28;2.80;99.90
5128;DHT22;2582;48.770;9.190;2023-02-15T00:42:54;2.90;99.90
5128;DHT22;2582;48.770;9.190;2023-02-15T00:45:19;2.90;99.90
5128;DHT22;2582;48.770;9.190;2023-02-15T00:47:46;2.90;99.90
5128;DHT22;2582;48.770;9.190;2023-02-15T00:50:12;2.90;99.90
5128;DHT22;2582;48.770;9.190;2023-02-15T00:52:37;2.90;99.90
5128;DHT22;2582;48.770;9.190;2023-02-15T00:55:03;2.90;99.90
5128;DHT22;2582;48.770;9.190;2023-02-15T00:57:28;2.80;99.90
5128;DHT22;2582;48.770;9.190;2023-02-15T00:59:54;2.70;99.90
5128;DHT22;2582;48.770;9.190;2023-02-15T01:02:19;2.80;99.90
5128;DHT22;2582;48.770;9.190;2023-02-15T01:04:45;2.70;99.90
5128;DHT22;2582;48.770;9.190;2023-02-15T01:07:10;2.70;99.90
5128;DHT22;2582;48.770;9.190;2023-02-15T01:09:36;2.80;99.90
5128;DHT22;2582;48.770;9.190;2023-02-15T01:12:02;2.80;99.90
5128;DHT22;2582;48.770;9.190;2023-02-15T01:14:27;2.70;99.90
5128;DHT22;2582;48.770;9.190;2023-02-15T01:16:53;2.70;99.90
5128;DHT22;2582;48.770;9.190;2023-02-15T01:19:18;2.60;99.90
5128;DHT22;2582;48.770;9.190;2023-02-15T01:21:44;2.60;99.90
5128;DHT22;2582;48.770;9.190;2023-02-15T01:24:13;2.60;99.90
5128;DHT22;2582;48.770;9.190;2023-02-15T01:26:39;2.50;99.90
5128;DHT22;2582;48.770;9.190;2023-02-15T01:29:05;2.60;99.90
5128;DHT22;2582;48.770;9.190;2023-02-15T01:31:30;2.60;99.90
5128;DHT22;2582;48.770;9.190;2023-02-15T01:33:56;2.60;99.90
5128;DHT22;2582;48.770;9.190;2023-02-15T01:36:21;2.70;99.90
5128;DHT22;2582;48.770;9.190;2023-02-15T01:38:47;2.60;99.90
5128;DHT22;2582;48.770;9.190;2023-02-15T01:41:13;2.60;99.90
5128;DHT22;2582;48.770;9.190;2023-02-15T01:43:58;2.60;99.90
5128;DHT22;2582;48.770;9.190;2023-02-15T01:46:38;2.40;99.90
5128;DHT22;2582;48.770;9.190;2023-02-15T01:49:13;2.40;99.90
5128;DHT22;2582;48.770;9.190;2023-02-15T01:51:42;2.50;99.90
5128;DHT22;2582;48.770;9.190;2023-02-15T01:54:50;2.50;99.90
5128;DHT22;2582;48.770;9.190;2023-02-15T01:57:12;2.50;99.90
5128;DHT22;2582;48.770;9.190;2023-02-15T01:59:39;2.60;99.90
5128;DHT22;2582;48.770;9.190;2023-02-15T02:02:09;2.50;99.90
5128;DHT22;2582;48.770;9.190;2023-02-15T02:04:48;2.50;99.90
5128;DHT22;2582;48.770;9.190;2023-02-15T02:07:16;2.50;99.90
5128;DHT22;2582;48.770;9.190;2023-02-15T02:09:43;2.50;99.90
5128;DHT22;2582;48.770;9.190;2023-02-15T02:12:09;2.50;99.90
5128;DHT22;2582;48.770;9.190;2023-02-15T02:14:36;2.50;99.90
5128;DHT22;2582;48.770;9.190;2023-02-15T02:30:59;2.50;99.90
5128;DHT22;2582;48.770;9.190;2023-02-15T02:39:07;2.40;99.90
5128;DHT22;2582;48.770;9.190;2023-02-15T02:42:12;2.40;99.90
5128;DHT22;2582;48.770;9.190;2023-02-15T02:44:44;2.40;99.90
5128;DHT22;2582;48.770;9.190;2023-02-15T02:47:30;2.40;99.90
5128;DHT22;2582;48.770;9.190;2023-02-15T02:50:01;2.30;99.90
5128;DHT22;2582;48.770;9.190;2023-02-15T02:52:40;2.40;99.90
5128;DHT22;2582;48.770;9.190;2023-02-15T02:58:28;2.40;99.90
5128;DHT22;2582;48.770;9.190;2023-02-15T03:00:55;2.40;99.90
5128;DHT22;2582;48.770;9.190;2023-02-15T03:03:32;2.40;99.90
5128;DHT22;2582;48.770;9.190;2023-02-15T03:06:01;2.40;99.90
5128;DHT22;2582;48.770;9.190;2023-02-15T03:08:34;2.20;99.90
5128;DHT22;2582;48.770;9.190;2023-02-15T03:11:02;2.30;99.90
5128;DHT22;2582;48.770;9.190;2023-02-15T03:13:28;2.20;99.90
5128;DHT22;2582;48.770;9.190;2023-02-15T03:15:55;2.20;99.90
5128;DHT22;2582;48.770;9.190;2023-02-15T03:18:45;2.20;99.90
5128;DHT22;2582;48.770;9.190;2023-02-15T03:21:21;2.20;99.90
5128;DHT22;2582;48.770;9.190;2023-02-15T03:23:54;2.20;99.90
5128;DHT22;2582;48.770;9.190;2023-02-15T03:26:24;2.20;99.90
5128;DHT22;2582;48.770;9.190;2023-02-15T03:28:50;2.10;99.90
5128;DHT22;2582;48.770;9.190;2023-02-15T03:31:21;2.00;99.90
5128;DHT22;2582;48.770;9.190;2023-02-15T03:33:57;2.10;99.90
5128;DHT22;2582;48.770;9.190;2023-02-15T03:39:36;2.00;99.90
5128;DHT22;2582;48.770;9.190;2023-02-15T03:42:19;2.00;99.90
5128;DHT22;2582;48.770;9.190;2023-02-15T03:45:02;2.10;99.90
5128;DHT22;2582;48.770;9.190;2023-02-15T03:47:39;2.20;99.90
5128;DHT22;2582;48.770;9.190;2023-02-15T03:50:24;2.20;99.90
5128;DHT22;2582;48.770;9.190;2023-02-15T03:53:12;2.20;99.90
5128;DHT22;2582;48.770;9.190;2023-02-15T03:55:39;2.20;99.90
5128;DHT22;2582;48.770;9.190;2023-02-15T03:58:05;2.10;99.90
5128;DHT22;2582;48.770;9.190;2023-02-15T04:00:54;2.00;99.90
5128;DHT22;2582;48.770;9.190;2023-02-15T04:03:43;2.10;99.90
5128;DHT22;2582;48.770;9.190;2023-02-15T04:06:10;2.00;99.90
5128;DHT22;2582;48.770;9.190;2023-02-15T04:08:35;1.90;99.90
5128;DHT22;2582;48.770;9.190;2023-02-15T04:11:19;1.90;99.90
5128;DHT22;2582;48.770;9.190;2023-02-15T04:13:45;1.80;99.90
5128;DHT22;2582;48.770;9.190;2023-02-15T04:16:10;1.80;99.90
5128;DHT22;2582;48.770;9.190;2023-02-15T04:18:41;1.80;99.90
5128;DHT22;2582;48.770;9.190;2023-02-15T04:21:28;1.80;99.90
5128;DHT22;2582;48.770;9.190;2023-02-15T04:24:12;1.70;99.90
5128;DHT22;2582;48.770;9.190;2023-02-15T04:26:57;1.70;99.90
5128;DHT22;2582;48.770;9.190;2023-02-15T04:29:23;1.80;99.90
5128;DHT22;2582;48.770;9.190;2023-02-15T04:31:50;1.70;99.90
5128;DHT22;2582;48.770;9.190;2023-02-15T04:34:16;1.70;99.90
5128;DHT22;2582;48.770;9.190;2023-02-15T04:36:42;1.80;99.90
5128;DHT22;2582;48.770;9.190;2023-02-15T04:39:08;1.70;99.90
5128;DHT22;2582;48.770;9.190;2023-02-15T04:41:35;1.70;99.90
5128;DHT22;2582;48.770;9.190;2023-02-15T04:44:01;1.70;99.90
5128;DHT22;2582;48.770;9.190;2023-02-15T04:46:27;1.70;99.90
5128;DHT22;2582;48.770;9.190;2023-02-15T04:48:54;1.70;99.90
5128;DHT22;2582;48.770;9.190;2023-02-15T04:51:19;1.70;99.90
5128;DHT22;2582;48.770;9.190;2023-02-15T04:53:45;1.60;99.90
5128;DHT22;2582;48.770;9.190;2023-02-15T04:56:11;1.50;99.90
5128;DHT22;2582;48.770;9.190;2023-02-15T04:58:36;1.50;99.90
5128;DHT22;2582;48.770;9.190;2023-02-15T05:01:06;1.60;99.90
5128;DHT22;2582;48.770;9.190;2023-02-15T05:03:32;1.60;99.90
5128;DHT22;2582;48.770;9.190;2023-02-15T05:05:57;1.70;99.90
5128;DHT22;2582;48.770;9.190;2023-02-15T05:08:23;1.70;99.90
5128;DHT22;2582;48.770;9.190;2023-02-15T05:10:48;1.70;99.90
5128;DHT22;2582;48.770;9.190;2023-02-15T05:13:14;1.70;99.90
5128;DHT22;2582;48.770;9.190;2023-02-15T05:15:40;1.70;99.90
5128;DHT22;2582;48.770;9.190;2023-02-15T05:18:06;1.80;99.90
5128;DHT22;2582;48.770;9.190;2023-02-15T05:20:33;1.70;99.90
5128;DHT22;2582;48.770;9.190;2023-02-15T05:22:58;1.60;99.90
5128;DHT22;2582;48.770;9.190;2023-02-15T05:25:24;1.60;99.90
5128;DHT22;2582;48.770;9.190;2023-02-15T05:28:11;1.60;99.90
5128;DHT22;2582;48.770;9.190;2023-02-15T05:30:51;1.50;99.90
5128;DHT22;2582;48.770;9.190;2023-02-15T05:33:22;1.50;99.90
5128;DHT22;2582;48.770;9.190;2023-02-15T05:35:48;1.50;99.90
5128;DHT22;2582;48.770;9.190;2023-02-15T05:38:13;1.50;99.90
5128;DHT22;2582;48.770;9.190;2023-02-15T05:40:39;1.50;99.90
5128;DHT22;2582;48.770;9.190;2023-02-15T05:43:05;1.50;99.90
5128;DHT22;2582;48.770;9.190;2023-02-15T05:45:30;1.40;99.90
5128;DHT22;2582;48.770;9.190;2023-02-15T05:47:56;1.50;99.90
5128;DHT22;2582;48.770;9.190;2023-02-15T05:50:23;1.50;99.90
5128;DHT22;2582;48.770;9.190;2023-02-15T05:52:49;1.50;99.90
5128;DHT22;2582;48.770;9.190;2023-02-15T05:55:14;1.40;99.90
5128;DHT22;2582;48.770;9.190;2023-02-15T05:57:40;1.40;99.90
5128;DHT22;2582;48.770;9.190;2023-02-15T06:00:06;1.40;99.90
5128;DHT22;2582;48.770;9.190;2023-02-15T06:02:36;1.50;99.90
5128;DHT22;2582;48.770;9.190;2023-02-15T06:05:03;1.50;99.90
5128;DHT22;2582;48.770;9.190;2023-02-15T06:07:29;1.50;99.90
5128;DHT22;2582;48.770;9.190;2023-02-15T06:09:55;1.60;99.90
5128;DHT22;2582;48.770;9.190;2023-02-15T06:12:20;1.50;99.90
5128;DHT22;2582;48.770;9.190;2023-02-15T06:14:46;1.50;99.90
5128;DHT22;2582;48.770;9.190;2023-02-15T06:17:12;1.70;99.90
5128;DHT22;2582;48.770;9.190;2023-02-15T06:19:37;1.70;99.90
5128;DHT22;2582;48.770;9.190;2023-02-15T06:22:03;1.60;99.90
5128;DHT22;2582;48.770;9.190;2023-02-15T06:24:28;1.60;99.90
5128;DHT22;2582;48.770;9.190;2023-02-15T06:26:54;1.70;99.90
5128;DHT22;2582;48.770;9.190;2023-02-15T06:29:19;1.70;99.90
5128;DHT22;2582;48.770;9.190;2023-02-15T06:31:45;1.60;99.90
5128;DHT22;2582;48.770;9.190;2023-02-15T06:34:10;1.60;99.90
5128;DHT22;2582;48.770;9.190;2023-02-15T06:36:36;1.50;99.90
5128;DHT22;2582;48.770;9.190;2023-02-15T06:39:02;1.50;99.90
5128;DHT22;2582;48.770;9.190;2023-02-15T06:41:28;1.60;99.90
5128;DHT22;2582;48.770;9.190;2023-02-15T06:43:54;1.70;99.90
5128;DHT22;2582;48.770;9.190;2023-02-15T06:46:19;1.70;99.90
5128;DHT22;2582;48.770;9.190;2023-02-15T06:48:45;1.70;99.90
5128;DHT22;2582;48.770;9.190;2023-02-15T06:51:11;1.70;99.90
5128;DHT22;2582;48.770;9.190;2023-02-15T06:53:36;1.70;99.90
5128;DHT22;2582;48.770;9.190;2023-02-15T06:56:06;1.80;99.90
5128;DHT22;2582;48.770;9.190;2023-02-15T06:58:40;1.80;99.90
5128;DHT22;2582;48.770;9.190;2023-02-15T07:01:06;1.80;99.90
5128;DHT22;2582;48.770;9.190;2023-02-15T07:03:33;1.80;99.90
5128;DHT22;2582;48.770;9.190;2023-02-15T07:06:00;1.70;99.90
5128;DHT22;2582;48.770;9.190;2023-02-15T07:08:26;1.80;99.90
5128;DHT22;2582;48.770;9.190;2023-02-15T07:10:53;1.80;99.90
5128;DHT22;2582;48.770;9.190;2023-02-15T07:13:19;1.80;99.90
5128;DHT22;2582;48.770;9.190;2023-02-15T07:15:47;1.80;99.90
5128;DHT22;2582;48.770;9.190;2023-02-15T07:18:13;1.80;99.90
5128;DHT22;2582;48.770;9.190;2023-02-15T07:20:39;1.90;99.90
5128;DHT22;2582;48.770;9.190;2023-02-15T07:23:07;1.90;99.90
5128;DHT22;2582;48.770;9.190;2023-02-15T07:25:33;2.00;99.90
5128;DHT22;2582;48.770;9.190;2023-02-15T07:28:00;1.90;99.90
5128;DHT22;2582;48.770;9.190;2023-02-15T07:30:27;2.00;99.90
5128;DHT22;2582;48.770;9.190;2023-02-15T07:32:56;1.90;99.90
5128;DHT22;2582;48.770;9.190;2023-02-15T07:35:51;1.90;99.90
5128;DHT22;2582;48.770;9.190;2023-02-15T07:38:17;1.90;99.90
5128;DHT22;2582;48.770;9.190;2023-02-15T07:40:43;1.70;99.90
5128;DHT22;2582;48.770;9.190;2023-02-15T07:43:09;1.40;99.90
5128;DHT22;2582;48.770;9.190;2023-02-15T07:45:35;1.50;99.90
5128;DHT22;2582;48.770;9.190;2023-02-15T07:48:01;1.60;99.90
5128;DHT22;2582;48.770;9.190;2023-02-15T07:50:27;1.80;99.90
5128;DHT22;2582;48.770;9.190;2023-02-15T07:52:52;1.80;99.90
5128;DHT22;2582;48.770;9.190;2023-02-15T07:55:18;1.90;99.90
5128;DHT22;2582;48.770;9.190;2023-02-15T07:57:45;2.00;99.90
5128;DHT22;2582;48.770;9.190;2023-02-15T08:00:15;2.00;99.90
5128;DHT22;2582;48.770;9.190;2023-02-15T08:02:41;2.10;99.90
5128;DHT22;2582;48.770;9.190;2023-02-15T08:05:07;2.20;99.90
5128;DHT22;2582;48.770;9.190;2023-02-15T08:07:33;2.20;99.90
5128;DHT22;2582;48.770;9.190;2023-02-15T08:09:58;2.20;99.90
5128;DHT22;2582;48.770;9.190;2023-02-15T08:12:27;2.40;99.90
5128;DHT22;2582;48.770;9.190;2023-02-15T08:14:53;2.40;99.90
5128;DHT22;2582;48.770;9.190;2023-02-15T08:17:18;2.30;99.90
5128;DHT22;2582;48.770;9.190;2023-02-15T08:19:44;2.20;99.90
5128;DHT22;2582;48.770;9.190;2023-02-15T08:22:13;1.90;99.90
5128;DHT22;2582;48.770;9.190;2023-02-15T08:24:39;1.90;99.90
5128;DHT22;2582;48.770;9.190;2023-02-15T08:27:07;2.10;99.90
5128;DHT22;2582;48.770;9.190;2023-02-15T08:29:33;2.10;99.90
5128;DHT22;2582;48.770;9.190;2023-02-15T08:32:02;2.10;99.90
5128;DHT22;2582;48.770;9.190;2023-02-15T08:34:33;2.20;99.90
5128;DHT22;2582;48.770;9.190;2023-02-15T08:36:59;2.30;99.90
5128;DHT22;2582;48.770;9.190;2023-02-15T08:39:26;2.20;99.90
5128;DHT22;2582;48.770;9.190;2023-02-15T08:41:51;2.40;99.90
5128;DHT22;2582;48.770;9.190;2023-02-15T08:44:18;2.50;99.90
5128;DHT22;2582;48.770;9.190;2023-02-15T08:46:45;2.20;99.90
5128;DHT22;2582;48.770;9.190;2023-02-15T08:49:15;2.00;99.90
5128;DHT22;2582;48.770;9.190;2023-02-15T08:51:41;2.20;99.90
5128;DHT22;2582;48.770;9.190;2023-02-15T08:54:10;2.20;99.90
5128;DHT22;2582;48.770;9.190;2023-02-15T08:56:37;2.00;99.90
5128;DHT22;2582;48.770;9.190;2023-02-15T08:59:04;1.90;99.90
5128;DHT22;2582;48.770;9.190;2023-02-15T09:01:31;2.00;99.90
5128;DHT22;2582;48.770;9.190;2023-02-15T09:04:03;2.10;99.90
5128;DHT22;2582;48.770;9.190;2023-02-15T09:06:29;2.20;99.90
5128;DHT22;2582;48.770;9.190;2023-02-15T09:08:55;2.50;99.90
5128;DHT22;2582;48.770;9.190;2023-02-15T09:11:24;2.60;99.90
5128;DHT22;2582;48.770;9.190;2023-02-15T09:13:53;2.80;99.90
5128;DHT22;2582;48.770;9.190;2023-02-15T09:16:20;3.00;99.90
5128;DHT22;2582;48.770;9.190;2023-02-15T09:18:47;3.20;99.90
5128;DHT22;2582;48.770;9.190;2023-02-15T09:21:15;3.40;99.90
5128;DHT22;2582;48.770;9.190;2023-02-15T09:23:43;3.40;99.90
5128;DHT22;2582;48.770;9.190;2023-02-15T09:26:14;3.30;99.90
5128;DHT22;2582;48.770;9.190;2023-02-15T09:28:40;3.30;99.90
5128;DHT22;2582;48.770;9.190;2023-02-15T09:31:20;3.10;99.90
5128;DHT22;2582;48.770;9.190;2023-02-15T09:33:47;2.70;99.90
5128;DHT22;2582;48.770;9.190;2023-02-15T09:36:24;2.70;99.90
5128;DHT22;2582;48.770;9.190;2023-02-15T09:38:58;2.90;99.90
5128;DHT22;2582;48.770;9.190;2023-02-15T10:10:02;3.80;99.90
5128;DHT22;2582;48.770;9.190;2023-02-15T10:24:02;4.20;99.90
5128;DHT22;2582;48.770;9.190;2023-02-15T10:29:10;4.30;99.90
5128;DHT22;2582;48.770;9.190;2023-02-15T10:31:55;4.40;99.90
5128;DHT22;2582;48.770;9.190;2023-02-15T10:34:36;4.40;99.90
5128;DHT22;2582;48.770;9.190;2023-02-15T10:45:20;4.60;99.90
5128;DHT22;2582;48.770;9.190;2023-02-15T10:50:33;4.70;99.90
5128;DHT22;2582;48.770;9.190;2023-02-15T10:56:11;5.10;99.90
5128;DHT22;2582;48.770;9.190;2023-02-15T11:01:34;5.60;99.90
5128;DHT22;2582;48.770;9.190;2023-02-15T11:04:09;5.70;99.90
5128;DHT22;2582;48.770;9.190;2023-02-15T11:06:44;5.80;99.90
5128;DHT22;2582;48.770;9.190;2023-02-15T11:09:15;5.70;99.90
5128;DHT22;2582;48.770;9.190;2023-02-15T11:11:46;5.80;99.90
5128;DHT22;2582;48.770;9.190;2023-02-15T11:17:41;6.30;99.90
5128;DHT22;2582;48.770;9.190;2023-02-15T11:20:36;8.00;99.90
5128;DHT22;2582;48.770;9.190;2023-02-15T11:23:13;10.00;99.90
5128;DHT22;2582;48.770;9.190;2023-02-15T11:25:46;12.30;99.90
5128;DHT22;2582;48.770;9.190;2023-02-15T11:28:23;13.50;97.90
5128;DHT22;2582;48.770;9.190;2023-02-15T11:30:54;13.50;96.90
5128;DHT22;2582;48.770;9.190;2023-02-15T11:33:29;13.00;96.70
5128;DHT22;2582;48.770;9.190;2023-02-15T11:36:02;12.20;97.80
5128;DHT22;2582;48.770;9.190;2023-02-15T11:38:32;13.50;97.50
5128;DHT22;2582;48.770;9.190;2023-02-15T11:41:11;15.00;95.70
5128;DHT22;2582;48.770;9.190;2023-02-15T11:43:47;16.70;91.30
5128;DHT22;2582;48.770;9.190;2023-02-15T11:46:15;17.80;88.40
5128;DHT22;2582;48.770;9.190;2023-02-15T11:48:41;17.30;85.40
5128;DHT22;2582;48.770;9.190;2023-02-15T11:51:19;16.80;85.70
5128;DHT22;2582;48.770;9.190;2023-02-15T11:53:46;16.00;87.30
5128;DHT22;2582;48.770;9.190;2023-02-15T11:56:21;16.00;87.20
5128;DHT22;2582;48.770;9.190;2023-02-15T11:59:02;15.90;86.80
5128;DHT22;2582;48.770;9.190;2023-02-15T12:01:39;16.40;85.70
5128;DHT22;2582;48.770;9.190;2023-02-15T12:04:33;17.60;84.20
5128;DHT22;2582;48.770;9.190;2023-02-15T12:07:32;17.60;81.70
5128;DHT22;2582;48.770;9.190;2023-02-15T12:12:42;16.30;85.30
5128;DHT22;2582;48.770;9.190;2023-02-15T12:15:11;17.70;82.60
5128;DHT22;2582;48.770;9.190;2023-02-15T12:17:51;16.80;81.70
5128;DHT22;2582;48.770;9.190;2023-02-15T12:22:58;20.20;75.70
5128;DHT22;2582;48.770;9.190;2023-02-15T12:25:40;21.40;70.40
5128;DHT22;2582;48.770;9.190;2023-02-15T12:28:30;22.60;66.30
5128;DHT22;2582;48.770;9.190;2023-02-15T12:30:57;22.50;62.10
5128;DHT22;2582;48.770;9.190;2023-02-15T12:33:39;19.80;67.10
5128;DHT22;2582;48.770;9.190;2023-02-15T12:37:00;18.90;70.40
5128;DHT22;2582;48.770;9.190;2023-02-15T12:41:33;18.70;73.20
5128;DHT22;2582;48.770;9.190;2023-02-15T12:44:21;17.80;71.40
5128;DHT22;2582;48.770;9.190;2023-02-15T12:47:04;18.50;72.80
5128;DHT22;2582;48.770;9.190;2023-02-15T12:49:35;20.40;68.40
5128;DHT22;2582;48.770;9.190;2023-02-15T12:52:04;22.00;65.80
5128;DHT22;2582;48.770;9.190;2023-02-15T12:54:40;22.00;63.50
5128;DHT22;2582;48.770;9.190;2023-02-15T12:57:28;22.50;62.90
5128;DHT22;2582;48.770;9.190;2023-02-15T13:02:49;20.00;63.70
5128;DHT22;2582;48.770;9.190;2023-02-15T13:05:32;19.40;68.00
5128;DHT22;2582;48.770;9.190;2023-02-15T13:10:40;18.60;70.80
5128;DHT22;2582;48.770;9.190;2023-02-15T13:13:10;19.40;68.60
5128;DHT22;2582;48.770;9.190;2023-02-15T13:15:39;20.30;67.30
5128;DHT22;2582;48.770;9.190;2023-02-15T13:18:12;20.20;64.80
5128;DHT22;2582;48.770;9.190;2023-02-15T13:20:40;19.90;68.60
5128;DHT22;2582;48.770;9.190;2023-02-15T13:23:27;21.70;65.30
5128;DHT22;2582;48.770;9.190;2023-02-15T13:25:55;23.40;62.20
5128;DHT22;2582;48.770;9.190;2023-02-15T13:28:32;23.40;60.80
5128;DHT22;2582;48.770;9.190;2023-02-15T13:31:01;20.60;63.90
5128;DHT22;2582;48.770;9.190;2023-02-15T13:33:36;20.70;63.80
5128;DHT22;2582;48.770;9.190;2023-02-15T13:38:54;19.60;67.10
5128;DHT22;2582;48.770;9.190;2023-02-15T13:41:33;20.50;64.30
5128;DHT22;2582;48.770;9.190;2023-02-15T13:52:23;19.40;67.70
5128;DHT22;2582;48.770;9.190;2023-02-15T14:00:21;24.30;59.10
5128;DHT22;2582;48.770;9.190;2023-02-15T14:03:32;23.40;59.10
5128;DHT22;2582;48.770;9.190;2023-02-15T14:06:20;25.30;58.10
5128;DHT22;2582;48.770;9.190;2023-02-15T14:17:23;24.10;54.60
5128;DHT22;2582;48.770;9.190;2023-02-15T14:26:03;16.90;68.80
5128;DHT22;2582;48.770;9.190;2023-02-15T14:30:57;15.10;74.80
5128;DHT22;2582;48.770;9.190;2023-02-15T14:33:38;14.80;76.90
5128;DHT22;2582;48.770;9.190;2023-02-15T14:36:11;14.30;78.50
5128;DHT22;2582;48.770;9.190;2023-02-15T14:38:54;14.00;80.10
5128;DHT22;2582;48.770;9.190;2023-02-15T14:41:35;13.40;82.00
5128;DHT22;2582;48.770;9.190;2023-02-15T14:46:58;13.00;85.50
5128;DHT22;2582;48.770;9.190;2023-02-15T14:49:31;12.90;85.90
5128;DHT22;2582;48.770;9.190;2023-02-15T14:52:01;12.80;86.60
5128;DHT22;2582;48.770;9.190;2023-02-15T15:00:00;12.40;90.20
5128;DHT22;2582;48.770;9.190;2023-02-15T15:05:34;12.00;92.60
5128;DHT22;2582;48.770;9.190;2023-02-15T15:07:52;11.70;93.80
5128;DHT22;2582;48.770;9.190;2023-02-15T15:12:47;11.20;95.80
5128;DHT22;2582;48.770;9.190;2023-02-15T15:18:00;11.00;97.30
5128;DHT22;2582;48.770;9.190;2023-02-15T15:25:48;10.80;98.90
5128;DHT22;2582;48.770;9.190;2023-02-15T15:33:52;10.30;99.90
5128;DHT22;2582;48.770;9.190;2023-02-15T15:36:45;10.10;99.90
5128;DHT22;2582;48.770;9.190;2023-02-15T15:42:42;9.80;99.90
5128;DHT22;2582;48.770;9.190;2023-02-15T15:48:35;9.60;99.90
5128;DHT22;2582;48.770;9.190;2023-02-15T15:51:13;9.50;99.90
5128;DHT22;2582;48.770;9.190;2023-02-15T15:53:42;9.40;99.90
5128;DHT22;2582;48.770;9.190;2023-02-15T15:56:15;9.20;99.90
5128;DHT22;2582;48.770;9.190;2023-02-15T15:58:46;9.20;99.90
5128;DHT22;2582;48.770;9.190;2023-02-15T16:01:14;9.20;99.90
5128;DHT22;2582;48.770;9.190;2023-02-15T16:03:49;9.10;99.90
5128;DHT22;2582;48.770;9.190;2023-02-15T16:09:20;9.00;99.90
5128;DHT22;2582;48.770;9.190;2023-02-15T16:11:52;8.90;99.90
5128;DHT22;2582;48.770;9.190;2023-02-15T16:14:36;8.80;99.90
5128;DHT22;2582;48.770;9.190;2023-02-15T16:17:06;8.70;99.90
5128;DHT22;2582;48.770;9.190;2023-02-15T16:19:36;8.70;99.90
5128;DHT22;2582;48.770;9.190;2023-02-15T16:22:03;8.70;99.90
5128;DHT22;2582;48.770;9.190;2023-02-15T16:29:55;8.40;99.90
5128;DHT22;2582;48.770;9.190;2023-02-15T16:32:23;8.30;99.90
5128;DHT22;2582;48.770;9.190;2023-02-15T16:34:58;8.20;99.90
5128;DHT22;2582;48.770;9.190;2023-02-15T16:37:31;8.20;99.90
5128;DHT22;2582;48.770;9.190;2023-02-15T16:39:57;8.10;99.90
5128;DHT22;2582;48.770;9.190;2023-02-15T16:42:23;8.00;99.90
5128;DHT22;2582;48.770;9.190;2023-02-15T16:45:06;7.90;99.90
5128;DHT22;2582;48.770;9.190;2023-02-15T16:47:39;7.80;99.90
5128;DHT22;2582;48.770;9.190;2023-02-15T16:50:06;7.80;99.90
5128;DHT22;2582;48.770;9.190;2023-02-15T16:52:43;7.70;99.90
5128;DHT22;2582;48.770;9.190;2023-02-15T16:55:20;7.60;99.90
5128;DHT22;2582;48.770;9.190;2023-02-15T16:57:47;7.60;99.90
5128;DHT22;2582;48.770;9.190;2023-02-15T17:00:21;7.40;99.90
5128;DHT22;2582;48.770;9.190;2023-02-15T17:03:03;7.40;99.90
5128;DHT22;2582;48.770;9.190;2023-02-15T17:05:40;7.40;99.90
5128;DHT22;2582;48.770;9.190;2023-02-15T17:08:19;7.30;99.90
5128;DHT22;2582;48.770;9.190;2023-02-15T17:11:09;7.20;99.90
5128;DHT22;2582;48.770;9.190;2023-02-15T17:13:36;7.20;99.90
5128;DHT22;2582;48.770;9.190;2023-02-15T17:18:30;7.00;99.90
5128;DHT22;2582;48.770;9.190;2023-02-15T17:20:59;7.00;99.90
5128;DHT22;2582;48.770;9.190;2023-02-15T17:23:40;7.00;99.90
5128;DHT22;2582;48.770;9.190;2023-02-15T17:26:15;7.10;99.90
5128;DHT22;2582;48.770;9.190;2023-02-15T17:28:48;7.10;99.90
5128;DHT22;2582;48.770;9.190;2023-02-15T17:31:16;7.10;99.90
5128;DHT22;2582;48.770;9.190;2023-02-15T17:33:42;7.00;99.90
5128;DHT22;2582;48.770;9.190;2023-02-15T17:36:20;7.00;99.90
5128;DHT22;2582;48.770;9.190;2023-02-15T17:41:25;7.00;99.90
5128;DHT22;2582;48.770;9.190;2023-02-15T17:43:51;6.90;99.90
5128;DHT22;2582;48.770;9.190;2023-02-15T17:46:16;6.80;99.90
5128;DHT22;2582;48.770;9.190;2023-02-15T17:48:46;6.60;99.90
5128;DHT22;2582;48.770;9.190;2023-02-15T17:51:14;6.70;99.90
5128;DHT22;2582;48.770;9.190;2023-02-15T17:53:40;6.70;99.90
5128;DHT22;2582;48.770;9.190;2023-02-15T17:56:06;6.70;99.90
5128;DHT22;2582;48.770;9.190;2023-02-15T17:58:38;6.70;99.90
5128;DHT22;2582;48.770;9.190;2023-02-15T18:01:10;6.60;99.90
5128;DHT22;2582;48.770;9.190;2023-02-15T18:03:55;6.40;99.90
5128;DHT22;2582;48.770;9.190;2023-02-15T18:06:41;6.40;99.90
5128;DHT22;2582;48.770;9.190;2023-02-15T18:09:25;6.50;99.90
5128;DHT22;2582;48.770;9.190;2023-02-15T18:12:33;6.60;99.90
5128;DHT22;2582;48.770;9.190;2023-02-15T18:14:59;6.40;99.90
5128;DHT22;2582;48.770;9.190;2023-02-15T18:17:39;6.30;99.90
5128;DHT22;2582;48.770;9.190;2023-02-15T18:22:40;6.40;99.90
5128;DHT22;2582;48.770;9.190;2023-02-15T18:25:12;6.40;99.90
5128;DHT22;2582;48.770;9.190;2023-02-15T18:27:38;6.30;99.90
5128;DHT22;2582;48.770;9.190;2023-02-15T18:30:05;6.40;99.90
5128;DHT22;2582;48.770;9.190;2023-02-15T18:32:34;6.30;99.90
5128;DHT22;2582;48.770;9.190;2023-02-15T18:35:00;6.30;99.90
5128;DHT22;2582;48.770;9.190;2023-02-15T18:37:30;6.30;99.90
5128;DHT22;2582;48.770;9.190;2023-02-15T18:39:57;6.30;99.90
5128;DHT22;2582;48.770;9.190;2023-02-15T18:42:24;6.10;99.90
5128;DHT22;2582;48.770;9.190;2023-02-15T18:44:59;6.00;99.90
5128;DHT22;2582;48.770;9.190;2023-02-15T18:47:25;5.90;99.90
5128;DHT22;2582;48.770;9.190;2023-02-15T18:49:50;6.00;99.90
5128;DHT22;2582;48.770;9.190;2023-02-15T18:52:19;6.10;99.90
5128;DHT22;2582;48.770;9.190;2023-02-15T18:54:46;6.10;99.90
5128;DHT22;2582;48.770;9.190;2023-02-15T18:57:14;5.90;99.90
5128;DHT22;2582;48.770;9.190;2023-02-15T18:59:40;5.90;99.90
5128;DHT22;2582;48.770;9.190;2023-02-15T19:02:17;5.90;99.90
5128;DHT22;2582;48.770;9.190;2023-02-15T19:04:44;6.00;99.90
5128;DHT22;2582;48.770;9.190;2023-02-15T19:09:49;5.90;99.90
5128;DHT22;2582;48.770;9.190;2023-02-15T19:12:16;5.80;99.90
5128;DHT22;2582;48.770;9.190;2023-02-15T19:14:43;5.80;99.90
5128;DHT22;2582;48.770;9.190;2023-02-15T19:17:14;5.80;99.90
5128;DHT22;2582;48.770;9.190;2023-02-15T19:19:40;5.80;99.90
5128;DHT22;2582;48.770;9.190;2023-02-15T19:22:07;5.70;99.90
5128;DHT22;2582;48.770;9.190;2023-02-15T19:24:38;5.60;99.90
5128;DHT22;2582;48.770;9.190;2023-02-15T19:27:22;5.70;99.90
5128;DHT22;2582;48.770;9.190;2023-02-15T19:29:53;5.70;99.90
5128;DHT22;2582;48.770;9.190;2023-02-15T19:32:19;5.70;99.90
5128;DHT22;2582;48.770;9.190;2023-02-15T19:34:44;5.60;99.90
5128;DHT22;2582;48.770;9.190;2023-02-15T19:37:29;5.50;99.90
5128;DHT22;2582;48.770;9.190;2023-02-15T19:39:57;5.60;99.90
5128;DHT22;2582;48.770;9.190;2023-02-15T19:42:23;5.80;99.90
5128;DHT22;2582;48.770;9.190;2023-02-15T19:44:50;5.90;99.90
5128;DHT22;2582;48.770;9.190;2023-02-15T19:47:16;6.00;99.90
5128;DHT22;2582;48.770;9.190;2023-02-15T19:49:42;6.00;99.90